Results



Saturday (23/2)





Saturday (23/2)

[ ]
# /
1 026 Casper Helling Safan () 16 6:06:08.1 32.77 200.00
2 023 Martijn van Es Team TNT Express () 16 6:06:08.7 32.77 200.00
3 009 Tristan Loy BAM Schaatsteam () 16 6:06:25.0 32.75 200.00
4 016 Jeroen de Vries Time Out Sport/Vrieling () 16 6:07:21.8 32.67 200.00
5 044 Bas van Hest Team TNT Express () 16 6:11:43.0 32.28 200.00
6 007 Bob de Vries BAM Schaatsteam () 16 6:12:57.3 32.18 200.00
7 031 Ruud Borst De Haan Westerhoff / VrieService () 16 6:12:57.5 32.18 200.00
8 038 Geert-Jan van der Wal Nefit HR Ketels () 16 6:12:57.6 32.18 200.00
9 046 Arjen Becker PGM Bakker Vastgoed () 16 6:12:57.7 32.17 200.00
10 018 Peter Baars DSB Bank () 16 6:12:57.8 32.17 200.00
11 063 Bram Sikma De Haan Westerhoff / VrieService () 16 6:12:58.1 32.17 200.00
12 070 Bram Bruschke InterCarParts/Vlasman () 16 6:12:59.1 32.17 200.00
13 103 Richard Sijm Viks Parket () 16 6:13:01.4 32.17 200.00
14 051 Peter de Vries DSB Bank () 16 6:30:10.4 30.76 200.00
15 067 Martijn Bovenmars InterCarParts/Vlasman () 16 6:30:10.6 30.76 200.00
16 838 Antero Kotijärvi Kuopion luisteluseura () 16 7:05:12.5 28.22 200.00
17 B95 Hotse Zandstra Haijma Stiens () 16 7:09:19.1 27.95 200.00
18 951 Yoeri Takken () 16 7:09:19.2 27.95 200.00
19 835 Pekka Pajunen HTL () 16 7:38:36.9 26.17 200.00
20 807 Jan Aalbers Stokvisdennen Dalfsen () 16 7:56:11.4 25.20 200.00
21 836 Olli Sjö Born () 16 8:02:08.6 24.89 200.00
22 840 Esa Kymäläinen Salon Viesti () 16 8:13:10.7 24.33 200.00
23 809 Matt Vloet () 16 8:29:51.6 23.54 200.00
24 827 Henk Hendrix () 16 8:52:39.5 22.53 200.00
25 808 Wim Pasman Stokvisdennen Dalfsen () 16 8:52:45.1 22.52 200.00
26 814 Nico van Wijk IJsclub Vlietland () 16 8:52:46.0 22.52 200.00
27 845 Kathalijne Oudhoff () 16 8:52:46.3 22.52 200.00
28 821 Joop Veerman () 16 8:52:49.1 22.52 200.00
29 828 Gerbrand Bijmolt TaSi () 16 10:06:16.0 19.79 200.00
30 832 Andrew Chillman () 16 10:07:03.9 19.77 200.00
31 B03 Rudi Groenendal () 15 6:07:47.8 30.59 187.50
32 032 Sander Kingma BAM Schaatsteam () 15 6:07:48.0 30.59 187.50
33 093 Hans van de Wetering Wessels-BMC-Mijnten () 15 6:07:48.2 30.59 187.50
34 B20 Gerrit de Zwaan Mijnten () 15 6:07:49.6 30.59 187.50
35 052 Jens Zwitser DSB Bank () 15 6:07:50.3 30.58 187.50
36 B05 Robert Gaasenbeek Mijnten () 15 6:07:55.9 30.58 187.50
37 106 Ytzen Faber Goesting.nl () 15 6:15:17.1 29.98 187.50
38 029 Joost Vink Beelen Sloopwerken () 15 6:26:12.6 29.13 187.50
39 812 Ton Rueck Warmonde Ijsclub () 15 10:02:03.0 18.69 187.50
40 826 Jeroen De Grijs () 15 10:06:17.9 18.56 187.50
41 806 Rob Faltin Duosport Amsterdam () 14 10:14:02.5 17.10 175.00
42 037 Arjan Mombarg Nefit HR Ketels () 13 5:00:19.4 32.47 162.50
43 819 Cees Keijtzer IJsclub Vlietland () 13 7:53:46.5 20.58 162.50
44 027 Rob van Meggelen Adformatie/Jobnews () 12 4:41:36.6 31.96 150.00
45 075 Rob Hadders Equipe Renault () 12 4:41:38.4 31.96 150.00
46 028 Sandor Stuut InterCarParts/Vlasman () 11 4:14:06.8 32.47 137.50
47 810 Ari Toivanen () 11 5:49:13.9 23.62 137.50
48 831 Michael Parunovac () 11 8:49:27.4 15.58 137.50
49 846 Belinda Hirsh () 11 8:52:47.1 15.48 137.50
50 056 Martijn Kromkamp Beelen Sloopwerken () 10 3:46:14.5 33.15 125.00
51 020 Geert Plender Safan () 10 3:51:30.8 32.40 125.00
52 B02 Klaas van der Wal Haijma Stiens () 10 4:09:06.7 30.11 125.00
53 B90 Freddie Vloedgraven Team-One () 10 4:27:03.7 28.08 125.00
54 844 Ari Partanen HTL () 10 6:25:10.8 19.47 125.00
55 010 René Ruitenberg Safan () 9 3:26:31.1 32.68 112.50
56 047 Rutger ter Laak PGM Bakker Vastgoed () 9 3:28:52.9 32.32 112.50
57 040 Willem Hut BAM Schaatsteam () 9 3:33:33.9 31.61 112.50
58 054 Bert van Buren Adformatie/Jobnews () 9 3:35:11.8 31.37 112.50
59 830 Kaj Järveläinen Joroisten sporttiklubi () 9 5:13:39.6 21.52 112.50
60 024 Bert Jan van der Veen Time Out Sport/Vrieling () 8 3:05:02.0 32.43 100.00
61 025 Lars Hoogenboom Adformatie/Jobnews () 8 3:08:19.5 31.86 100.00
62 104 Jasper van Tol Goesting.nl () 8 3:08:25.8 31.84 100.00
63 D05 Daniëlle Bekkering Frisia Financieringen () 8 3:23:20.2 29.51 100.00
64 260 Joonatan Pappinen Kuopion luisteluseura () 8 3:23:24.0 29.50 100.00
65 217 Aimo Väisänen KENSU () 8 3:48:18.5 26.28 100.00
66 218 Jorma Ryynänen kuopion luisteluseura () 8 3:48:20.6 26.28 100.00
67 229 Hannu Pappinen kuopion luisteluseura () 8 3:48:22.9 26.27 100.00
68 206 Juha Sameri HTL () 8 3:55:01.8 25.53 100.00
69 216 Johannes Leppänen HTL () 8 4:00:33.9 24.94 100.00
70 226 Hannu Luoma Kensu () 8 4:03:57.8 24.59 100.00
71 266 Huub Stammes () 8 4:11:10.6 23.89 100.00
72 843 Juha Heikkilä Salon Viesti () 8 4:12:24.3 23.77 100.00
73 230 Erkki Räsänen kuopion luisteluseura () 8 4:18:17.6 23.23 100.00
74 241 Donald Drielsma Stockholm Speedskaters () 8 4:20:54.3 23.00 100.00
75 304 Janne Mononen () 8 4:22:16.9 22.88 100.00
76 834 Siebrand Kuiper () 8 4:24:37.0 22.67 100.00
77 277 Anita Hyttinen Leppävirran Urheilijat LepU () 8 4:26:55.9 22.48 100.00
78 302 Hannu Vierikko Ketkupolkka () 8 4:28:29.9 22.35 100.00
79 301 Matti Pesälä Kortelan Ryhti () 8 4:37:48.2 21.60 100.00
80 231 Per Hult HLK () 8 4:37:52.5 21.59 100.00
81 303 Kai Immonen () 8 4:45:26.3 21.02 100.00
82 829 Bram Schaap TiVM () 8 4:52:05.7 20.54 100.00
83 261 Ahti Antikainen () 8 4:54:26.2 20.38 100.00
84 279 Terhi Kokko () 8 4:54:26.2 20.38 100.00
85 238 Markku Kostiainen HTL () 8 4:57:47.5 20.15 100.00
86 243 Petri Tervevuori () 8 5:01:53.0 19.88 100.00
87 820 Cor Smit () 8 5:03:58.5 19.74 100.00
88 256 Dirk jan van der Flier () 8 5:07:32.9 19.51 100.00
89 283 Heidrun Bohler () 8 5:07:55.1 19.49 100.00
90 249 Jukka Balk () 8 5:16:01.5 18.99 100.00
91 354 Nina Koponen Savon Dynamo () 8 5:19:54.7 18.76 100.00
92 242 Ari Ukko () 8 5:29:43.4 18.20 100.00
93 251 Kari Vartiainen () 8 5:51:23.1 17.08 100.00
94 286 Van Der Marel Heidi () 8 5:52:12.7 17.04 100.00
95 247 Santtu Mäki () 8 6:04:28.1 16.46 100.00
96 278 Paula Halonen () 8 6:34:55.8 15.19 100.00
97 284 Saara-Maria Sormunen () 8 6:35:48.2 15.16 100.00
98 285 Joke ter Horst () 8 6:36:44.9 15.12 100.00
99 005 Henk Angenent Team TNT Express () 7 2:41:29.7 32.51 87.50
100 022 Joost Juffermans Team TNT Express () 7 2:41:32.2 32.50 87.50
[ ]
833 - : 1 | 2 | 3 | 4 | 5 | 6 | 7 | 8 | 9